createdAt,value
2022-12-19T00:01:28.684Z,23.65
2022-12-19T00:04:35.705Z,22.77
2022-12-19T00:07:39.379Z,22.48
2022-12-19T00:10:43.140Z,24.10
2022-12-19T00:13:46.568Z,23.80
2022-12-19T00:16:49.757Z,25.98
2022-12-19T00:19:53.218Z,24.42
2022-12-19T00:22:57.855Z,24.43
2022-12-19T00:26:12.351Z,23.50
2022-12-19T00:29:18.220Z,24.13
2022-12-19T00:32:21.444Z,24.30
2022-12-19T00:35:25.011Z,23.67
2022-12-19T00:38:29.248Z,24.02
2022-12-19T00:41:34.234Z,24.20
2022-12-19T00:44:37.447Z,23.10
2022-12-19T00:47:40.689Z,23.30
2022-12-19T00:50:43.864Z,23.90
2022-12-19T00:53:48.966Z,23.10
2022-12-19T00:56:52.110Z,23.42
2022-12-19T00:59:55.321Z,23.17
2022-12-19T01:02:58.818Z,23.55
2022-12-19T01:06:02.436Z,21.75
2022-12-19T01:09:06.472Z,22.23
2022-12-19T01:12:30.759Z,23.38
2022-12-19T01:15:34.020Z,22.93
2022-12-19T01:18:40.781Z,23.05
2022-12-19T01:21:44.251Z,23.30
2022-12-19T01:24:47.836Z,21.60
2022-12-19T01:27:55.653Z,23.60
2022-12-19T01:30:58.867Z,21.33
2022-12-19T01:34:02.172Z,21.35
2022-12-19T01:37:05.379Z,21.50
2022-12-19T01:40:10.059Z,19.13
2022-12-19T01:43:15.155Z,20.20
2022-12-19T01:46:21.809Z,19.90
2022-12-19T01:49:35.448Z,20.65
2022-12-19T01:52:38.642Z,19.88
2022-12-19T01:55:44.534Z,19.10
2022-12-19T01:58:56.120Z,17.38
2022-12-19T02:02:17.434Z,16.52
2022-12-19T02:05:20.892Z,17.08
2022-12-19T02:08:24.853Z,19.40
2022-12-19T02:11:28.666Z,17.02
2022-12-19T02:14:35.544Z,18.38
2022-12-19T02:18:08.126Z,17.97
2022-12-19T02:21:30.066Z,15.10
2022-12-19T02:25:03.087Z,17.17
2022-12-19T02:28:37.678Z,16.17
2022-12-19T02:31:58.569Z,15.55
2022-12-19T02:35:33.121Z,15.85
2022-12-19T02:39:01.068Z,14.45
2022-12-19T02:42:07.606Z,15.70
2022-12-19T02:45:20.051Z,15.38
2022-12-19T02:48:32.834Z,14.23
2022-12-19T02:51:36.642Z,14.77
2022-12-19T02:54:42.294Z,14.40
2022-12-19T02:58:16.317Z,14.23
2022-12-19T03:01:31.643Z,14.37
2022-12-19T03:04:55.509Z,13.88
2022-12-19T03:08:14.945Z,13.57
2022-12-19T03:11:18.591Z,15.07
2022-12-19T03:14:25.258Z,15.65
2022-12-19T03:17:37.052Z,15.02
2022-12-19T03:20:57.049Z,14.75
2022-12-19T03:24:01.042Z,15.47
2022-12-19T03:27:22.805Z,14.75
2022-12-19T03:30:26.140Z,15.00
2022-12-19T03:33:32.177Z,14.53
2022-12-19T03:36:44.005Z,16.10
2022-12-19T03:39:52.826Z,14.55
2022-12-19T03:43:12.019Z,15.93
2022-12-19T03:46:25.553Z,15.90
2022-12-19T03:49:28.933Z,15.40
2022-12-19T03:52:50.922Z,15.48
2022-12-19T03:56:30.962Z,15.13
2022-12-19T04:00:00.518Z,15.52
2022-12-19T04:03:05.371Z,15.15
2022-12-19T04:06:10.053Z,15.50
2022-12-19T04:09:17.947Z,15.20
2022-12-19T04:12:30.759Z,15.88
2022-12-19T04:15:46.041Z,15.77
2022-12-19T04:18:55.852Z,17.50
2022-12-19T04:22:09.153Z,16.45
2022-12-19T04:25:16.819Z,16.30
2022-12-19T04:28:40.732Z,15.23
2022-12-19T04:31:45.177Z,16.23
2022-12-19T04:34:48.369Z,15.82
2022-12-19T04:37:52.644Z,15.87
2022-12-19T04:40:56.729Z,15.77
2022-12-19T04:43:59.941Z,14.85
2022-12-19T04:47:03.224Z,17.05
2022-12-19T04:50:06.683Z,16.65
2022-12-19T04:53:10.172Z,17.30
2022-12-19T04:56:14.696Z,16.83
2022-12-19T04:59:17.933Z,16.23
2022-12-19T05:02:21.237Z,15.60
2022-12-19T05:05:24.547Z,16.05
2022-12-19T05:08:28.089Z,16.17
2022-12-19T05:11:31.498Z,14.55
2022-12-19T05:14:34.712Z,14.95
2022-12-19T05:17:38.237Z,15.40
2022-12-19T05:20:41.386Z,15.23
2022-12-19T05:23:44.625Z,15.55
2022-12-19T05:26:49.434Z,15.95
2022-12-19T05:29:53.339Z,16.03
2022-12-19T05:32:56.644Z,16.38
2022-12-19T05:36:00.114Z,16.23
2022-12-19T05:39:03.433Z,15.30
2022-12-19T05:42:12.051Z,16.38
2022-12-19T05:45:15.751Z,16.38
2022-12-19T05:48:18.968Z,15.57
2022-12-19T05:51:22.364Z,14.40
2022-12-19T05:54:25.508Z,18.17
2022-12-19T05:57:28.626Z,16.80
2022-12-19T06:00:34.646Z,15.63
2022-12-19T06:03:38.484Z,15.95
2022-12-19T06:06:41.793Z,16.75
2022-12-19T06:09:45.362Z,16.33
2022-12-19T06:12:48.548Z,15.95
2022-12-19T06:15:56.611Z,15.32
2022-12-19T06:18:59.894Z,16.40
2022-12-19T06:22:03.181Z,16.08
2022-12-19T06:25:07.849Z,16.58
2022-12-19T06:28:11.208Z,14.32
2022-12-19T06:31:18.635Z,14.77
2022-12-19T06:34:54.848Z,15.82
2022-12-19T06:37:48.831Z,15.13
2022-12-19T06:41:20.681Z,17.63
2022-12-19T06:44:24.020Z,14.07
2022-12-19T06:47:27.407Z,17.52
2022-12-19T06:50:30.803Z,17.48
2022-12-19T06:53:34.758Z,14.00
2022-12-19T06:56:40.088Z,15.05
2022-12-19T06:59:43.440Z,17.42
2022-12-19T07:02:51.092Z,17.10
2022-12-19T07:05:54.517Z,18.50
2022-12-19T07:08:57.804Z,18.08
2022-12-19T07:12:01.989Z,16.33
2022-12-19T07:15:06.489Z,18.73
2022-12-19T07:18:10.681Z,16.55
2022-12-19T07:21:14.077Z,17.77
2022-12-19T07:24:22.348Z,17.70
2022-12-19T07:30:56.066Z,16.88
2022-12-19T07:34:28.353Z,16.20
2022-12-19T07:38:07.765Z,16.77
2022-12-19T07:41:26.120Z,16.85
2022-12-19T07:44:29.610Z,16.50
2022-12-19T07:47:32.881Z,17.15
2022-12-19T07:50:36.383Z,17.63
2022-12-19T07:53:39.748Z,15.90
2022-12-19T07:56:59.526Z,14.82
2022-12-19T08:00:03.435Z,17.17
2022-12-19T08:03:16.900Z,18.45
2022-12-19T08:06:24.673Z,16.93
2022-12-19T08:09:32.384Z,16.65
2022-12-19T08:12:40.374Z,16.25
2022-12-19T08:15:46.430Z,16.97
2022-12-19T08:18:49.954Z,15.70
2022-12-19T08:21:53.584Z,16.23
2022-12-19T08:24:57.823Z,16.75
2022-12-19T08:28:03.274Z,16.77
2022-12-19T08:31:14.969Z,15.45
2022-12-19T08:34:18.379Z,16.15
2022-12-19T08:37:21.869Z,16.23
2022-12-19T08:40:25.302Z,16.88
2022-12-19T08:43:30.637Z,16.98
2022-12-19T08:46:33.933Z,15.70
2022-12-19T08:49:39.811Z,15.52
2022-12-19T08:52:48.734Z,16.10
2022-12-19T08:55:59.778Z,16.33
2022-12-19T08:59:03.126Z,15.82
2022-12-19T09:02:06.745Z,16.40
2022-12-19T09:06:03.827Z,16.58
2022-12-19T09:08:40.310Z,17.13
2022-12-19T09:11:48.614Z,17.30
2022-12-19T09:14:51.838Z,17.45
2022-12-19T09:17:55.012Z,15.37
2022-12-19T09:21:00.060Z,17.63
2022-12-19T09:24:10.213Z,16.40
2022-12-19T09:27:16.429Z,17.40
2022-12-19T09:30:22.247Z,16.52
2022-12-19T09:33:26.967Z,16.67
2022-12-19T09:36:30.225Z,15.90
2022-12-19T09:39:35.149Z,16.47
2022-12-19T09:42:59.730Z,17.35
2022-12-19T09:46:20.979Z,16.30
2022-12-19T09:49:42.844Z,17.17
2022-12-19T09:52:54.758Z,16.25
2022-12-19T09:55:59.838Z,15.93
2022-12-19T09:59:12.802Z,17.48
2022-12-19T10:02:42.185Z,16.33
2022-12-19T10:07:12.934Z,13.23
2022-12-19T10:11:16.304Z,17.08
2022-12-19T10:13:13.986Z,16.50
2022-12-19T10:17:08.597Z,16.90
2022-12-19T10:20:18.217Z,15.02
2022-12-19T10:23:58.771Z,18.50
2022-12-19T10:27:24.980Z,16.45
2022-12-19T10:30:32.488Z,15.63
2022-12-19T10:33:51.247Z,16.30
2022-12-19T10:37:26.672Z,15.32
2022-12-19T10:40:57.087Z,16.92
2022-12-19T10:44:07.371Z,15.23
2022-12-19T10:47:16.174Z,16.07
2022-12-19T10:50:25.869Z,14.75
2022-12-19T10:53:30.214Z,14.27
2022-12-19T10:56:37.756Z,16.10
2022-12-19T10:59:53.703Z,16.13
2022-12-19T11:03:26.259Z,15.50
2022-12-19T11:06:35.441Z,17.23
2022-12-19T11:09:50.610Z,18.08
2022-12-19T11:17:01.992Z,16.27
2022-12-19T11:22:27.452Z,18.17
2022-12-19T11:29:30.940Z,16.00
2022-12-19T11:29:40.717Z,16.85
2022-12-19T11:30:44.493Z,17.02
2022-12-19T11:34:36.593Z,15.73
2022-12-19T11:37:55.082Z,16.45
2022-12-19T11:41:04.167Z,16.65
2022-12-19T11:44:44.501Z,17.20
2022-12-19T11:48:15.239Z,14.60
2022-12-19T11:51:48.065Z,15.35
2022-12-19T11:55:06.116Z,16.10
2022-12-19T11:58:13.107Z,16.80
2022-12-19T12:01:22.025Z,15.13
2022-12-19T12:04:38.030Z,15.63
2022-12-19T12:08:08.152Z,17.20
2022-12-19T12:17:50.555Z,16.17
2022-12-19T12:25:17.442Z,17.40
2022-12-19T12:31:16.209Z,16.42
2022-12-19T12:31:32.146Z,17.42
2022-12-19T12:31:40.357Z,15.10
2022-12-19T12:31:50.266Z,15.97
2022-12-19T12:35:52.366Z,15.27
2022-12-19T12:38:13.698Z,16.30
2022-12-19T12:40:59.800Z,15.37
2022-12-19T12:44:09.499Z,15.80
2022-12-19T12:47:25.713Z,16.02
2022-12-19T12:50:31.676Z,16.58
2022-12-19T12:53:38.544Z,16.33
2022-12-19T12:56:42.597Z,18.15
2022-12-19T12:59:47.350Z,18.73
2022-12-19T13:03:14.550Z,17.53
2022-12-19T13:06:34.171Z,19.15
2022-12-19T13:09:37.955Z,16.50
2022-12-19T13:13:18.583Z,14.97
2022-12-19T13:16:43.260Z,15.55
2022-12-19T13:19:55.879Z,15.45
2022-12-19T13:22:59.266Z,14.35
2022-12-19T13:26:04.717Z,15.02
2022-12-19T13:29:28.181Z,14.48
2022-12-19T13:32:54.156Z,15.52
2022-12-19T13:39:50.420Z,15.00
2022-12-19T13:39:59.206Z,17.42
2022-12-19T13:43:25.627Z,14.70
2022-12-19T13:46:44.356Z,14.70
2022-12-19T13:49:47.944Z,15.40
2022-12-19T13:52:52.297Z,16.52
2022-12-19T13:56:11.561Z,16.17
2022-12-19T13:59:15.458Z,16.85
2022-12-19T14:02:29.020Z,16.95
2022-12-19T14:06:15.827Z,16.23
2022-12-19T14:09:25.179Z,14.80
2022-12-19T14:13:54.094Z,16.63
2022-12-19T14:16:39.738Z,18.27
2022-12-19T14:19:50.550Z,19.30
2022-12-19T14:23:00.559Z,18.88
2022-12-19T14:28:19.655Z,18.58
2022-12-19T14:30:28.970Z,19.83
2022-12-19T14:33:44.377Z,19.73
2022-12-19T14:36:58.588Z,20.48
2022-12-19T14:40:20.967Z,22.23
2022-12-19T14:43:58.960Z,22.50
2022-12-19T14:54:12.349Z,22.40
2022-12-19T14:54:17.437Z,22.00
2022-12-19T14:57:25.626Z,23.17
2022-12-19T15:01:10.067Z,21.20
2022-12-19T15:04:52.515Z,22.20
2022-12-19T15:07:48.129Z,22.17
2022-12-19T15:11:13.847Z,23.60
2022-12-19T15:14:53.786Z,21.67
2022-12-19T15:17:55.904Z,21.63
2022-12-19T15:21:04.948Z,25.27
2022-12-19T15:24:08.640Z,22.63
2022-12-19T15:27:18.731Z,20.27
2022-12-19T15:30:23.127Z,21.42
2022-12-19T15:33:26.402Z,22.52
2022-12-19T15:36:29.677Z,24.77
2022-12-19T15:39:33.050Z,24.15
2022-12-19T15:42:36.379Z,23.98
2022-12-19T15:45:40.685Z,26.40
2022-12-19T15:48:48.499Z,24.90
2022-12-19T15:51:54.574Z,25.08
2022-12-19T15:54:57.911Z,26.00
2022-12-19T15:58:05.358Z,25.13
2022-12-19T16:01:08.774Z,25.20
2022-12-19T16:04:15.651Z,26.52
2022-12-19T16:07:21.837Z,26.00
2022-12-19T16:10:26.404Z,24.55
2022-12-19T16:13:35.516Z,23.38
2022-12-19T16:16:39.104Z,23.63
2022-12-19T16:19:42.549Z,24.43
2022-12-19T16:22:45.764Z,22.65
2022-12-19T16:25:52.264Z,21.52
2022-12-19T16:28:55.752Z,22.20
2022-12-19T16:32:00.947Z,22.92
2022-12-19T16:35:12.535Z,20.23
2022-12-19T16:38:16.596Z,20.42
2022-12-19T16:41:25.469Z,21.40
2022-12-19T16:44:32.912Z,19.45
2022-12-19T16:47:36.201Z,21.77
2022-12-19T16:50:39.514Z,21.97
2022-12-19T16:53:42.766Z,19.60
2022-12-19T16:56:50.560Z,20.15
2022-12-19T16:59:54.541Z,20.63
2022-12-19T17:03:17.103Z,20.60
2022-12-19T17:06:22.496Z,19.90
2022-12-19T17:09:26.238Z,21.63
2022-12-19T17:12:29.670Z,19.95
2022-12-19T17:15:36.749Z,19.63
2022-12-19T17:18:42.698Z,20.52
2022-12-19T17:21:45.994Z,19.70
2022-12-19T17:24:49.885Z,19.90
2022-12-19T17:27:54.427Z,21.00
2022-12-19T17:31:02.310Z,21.67
2022-12-19T17:34:12.215Z,19.70
2022-12-19T17:37:17.470Z,19.48
2022-12-19T17:40:23.563Z,20.75
2022-12-19T17:43:26.853Z,19.88
2022-12-19T17:46:31.723Z,20.33
2022-12-19T17:49:35.010Z,20.27
2022-12-19T17:52:38.291Z,18.93
2022-12-19T17:55:41.978Z,20.15
2022-12-19T17:58:45.733Z,19.65
2022-12-19T18:01:49.654Z,18.67
2022-12-19T18:04:53.548Z,19.90
2022-12-19T18:07:56.858Z,20.52
2022-12-19T18:11:02.306Z,21.02
2022-12-19T18:14:05.927Z,21.42
2022-12-19T18:17:12.916Z,19.48
2022-12-19T18:20:31.588Z,19.83
2022-12-19T18:23:35.576Z,20.67
2022-12-19T18:26:38.815Z,20.63
2022-12-19T18:29:42.041Z,20.58
2022-12-19T18:32:51.597Z,21.60
2022-12-19T18:35:55.111Z,18.30
2022-12-19T18:38:59.091Z,20.23
2022-12-19T18:42:02.505Z,21.05
2022-12-19T18:45:06.212Z,19.45
2022-12-19T18:48:20.985Z,20.13
2022-12-19T18:51:24.277Z,19.88
2022-12-19T18:54:28.479Z,19.30
2022-12-19T18:57:31.735Z,19.60
2022-12-19T19:00:37.716Z,17.83
2022-12-19T19:03:43.887Z,19.43
2022-12-19T19:06:52.329Z,18.60
2022-12-19T19:09:56.054Z,19.17
2022-12-19T19:13:25.842Z,19.20
2022-12-19T19:16:29.176Z,20.58
2022-12-19T19:19:32.480Z,19.83
2022-12-19T19:22:36.331Z,19.90
2022-12-19T19:25:39.953Z,19.47
2022-12-19T19:28:47.034Z,18.40
2022-12-19T19:31:54.497Z,18.38
2022-12-19T19:34:57.782Z,18.33
2022-12-19T19:38:06.804Z,18.48
2022-12-19T19:41:10.141Z,17.42
2022-12-19T19:44:13.320Z,18.92
2022-12-19T19:47:16.582Z,18.20
2022-12-19T19:50:20.279Z,19.42
2022-12-19T19:53:23.887Z,18.48
2022-12-19T19:56:27.071Z,17.73
2022-12-19T19:59:31.799Z,18.88
2022-12-19T20:02:35.306Z,17.73
2022-12-19T20:05:38.690Z,18.43
2022-12-19T20:08:41.894Z,17.92
2022-12-19T20:11:45.245Z,17.35
2022-12-19T20:14:48.507Z,18.08
2022-12-19T20:17:52.982Z,18.23
2022-12-19T20:20:56.523Z,17.77
2022-12-19T20:24:00.029Z,17.60
2022-12-19T20:27:03.310Z,17.80
2022-12-19T20:30:07.645Z,18.33
2022-12-19T20:33:11.814Z,16.95
2022-12-19T20:36:15.420Z,16.83
2022-12-19T20:39:25.695Z,17.50
2022-12-19T20:42:29.071Z,16.92
2022-12-19T20:45:32.408Z,16.92
2022-12-19T20:48:35.897Z,17.10
2022-12-19T20:51:39.521Z,17.67
2022-12-19T20:54:42.651Z,16.67
2022-12-19T20:57:46.031Z,16.80
2022-12-19T21:00:50.506Z,17.52
2022-12-19T21:03:54.074Z,17.63
2022-12-19T21:06:57.755Z,16.77
2022-12-19T21:10:00.990Z,17.13
2022-12-19T21:13:04.326Z,19.02
2022-12-19T21:16:11.015Z,17.25
2022-12-19T21:19:14.302Z,18.67
2022-12-19T21:22:19.179Z,17.08
2022-12-19T21:25:22.532Z,17.33
2022-12-19T21:28:26.074Z,16.27
2022-12-19T21:31:31.099Z,16.05
2022-12-19T21:34:34.914Z,16.15
2022-12-19T21:37:43.314Z,15.13
2022-12-19T21:40:47.066Z,15.63
2022-12-19T21:43:53.693Z,15.30
2022-12-19T21:46:57.084Z,15.02
2022-12-19T21:50:00.377Z,13.90
2022-12-19T21:53:03.781Z,14.18
2022-12-19T21:56:25.030Z,13.70
2022-12-19T21:59:28.343Z,13.83
2022-12-19T22:02:31.621Z,14.57
2022-12-19T22:05:35.154Z,13.68
2022-12-19T22:08:38.438Z,12.00
2022-12-19T22:11:43.227Z,12.65
2022-12-19T22:14:46.486Z,13.15
2022-12-19T22:17:49.857Z,11.02
2022-12-19T22:20:58.816Z,11.35
2022-12-19T22:24:03.435Z,11.02
2022-12-19T22:27:06.707Z,11.20
2022-12-19T22:30:11.300Z,10.63
2022-12-19T22:33:14.770Z,11.52
2022-12-19T22:36:23.961Z,10.82
2022-12-19T22:39:30.735Z,10.90
2022-12-19T22:42:33.935Z,10.77
2022-12-19T22:45:37.146Z,10.10
2022-12-19T22:48:41.436Z,11.55
2022-12-19T22:51:45.091Z,9.63
2022-12-19T22:54:48.275Z,10.70
2022-12-19T22:57:51.674Z,10.23
2022-12-19T23:00:54.833Z,10.43
2022-12-19T23:04:00.950Z,9.75
2022-12-19T23:07:04.318Z,10.05
2022-12-19T23:10:09.120Z,9.03
2022-12-19T23:13:12.475Z,8.95
2022-12-19T23:16:19.002Z,8.32
2022-12-19T23:19:22.348Z,8.18
2022-12-19T23:22:28.187Z,8.50
2022-12-19T23:25:31.630Z,8.52
2022-12-19T23:28:35.343Z,8.27
2022-12-19T23:31:44.929Z,7.73
2022-12-19T23:34:48.242Z,7.80
2022-12-19T23:37:51.404Z,7.68
2022-12-19T23:41:00.494Z,8.70
2022-12-19T23:44:04.353Z,7.68
2022-12-19T23:47:07.568Z,7.85
2022-12-19T23:50:11.155Z,8.23
2022-12-19T23:53:14.398Z,8.48
2022-12-19T23:56:20.062Z,7.47
2022-12-19T23:59:23.251Z,7.60
